sensor_id;sensor_type;location;lat;lon;timestamp;P1;durP1;ratioP1;P2;durP2;ratioP2
54191;SDS011;40101;53.002;6.488;2024-02-28T00:02:29;53.33;;;18.45;;
54191;SDS011;40101;53.002;6.488;2024-02-28T00:04:55;56.78;;;19.00;;
54191;SDS011;40101;53.002;6.488;2024-02-28T00:07:27;50.35;;;19.05;;
54191;SDS011;40101;53.002;6.488;2024-02-28T00:09:52;62.53;;;20.80;;
54191;SDS011;40101;53.002;6.488;2024-02-28T00:12:22;55.25;;;19.55;;
54191;SDS011;40101;53.002;6.488;2024-02-28T00:14:51;61.95;;;19.60;;
54191;SDS011;40101;53.002;6.488;2024-02-28T00:17:16;59.25;;;19.35;;
54191;SDS011;40101;53.002;6.488;2024-02-28T00:19:42;61.03;;;19.85;;
54191;SDS011;40101;53.002;6.488;2024-02-28T00:22:08;94.80;;;20.80;;
54191;SDS011;40101;53.002;6.488;2024-02-28T00:24:34;56.97;;;19.20;;
54191;SDS011;40101;53.002;6.488;2024-02-28T00:27:00;66.13;;;20.15;;
54191;SDS011;40101;53.002;6.488;2024-02-28T00:29:26;70.57;;;22.83;;
54191;SDS011;40101;53.002;6.488;2024-02-28T00:31:52;52.55;;;20.77;;
54191;SDS011;40101;53.002;6.488;2024-02-28T00:34:18;63.50;;;19.83;;
54191;SDS011;40101;53.002;6.488;2024-02-28T00:36:43;53.25;;;20.15;;
54191;SDS011;40101;53.002;6.488;2024-02-28T00:39:10;78.43;;;22.30;;
54191;SDS011;40101;53.002;6.488;2024-02-28T00:41:36;52.00;;;20.20;;
54191;SDS011;40101;53.002;6.488;2024-02-28T00:44:09;49.35;;;19.67;;
54191;SDS011;40101;53.002;6.488;2024-02-28T00:46:35;48.95;;;20.42;;
54191;SDS011;40101;53.002;6.488;2024-02-28T00:49:01;50.63;;;19.48;;
54191;SDS011;40101;53.002;6.488;2024-02-28T00:51:27;59.28;;;20.67;;
54191;SDS011;40101;53.002;6.488;2024-02-28T00:53:52;54.92;;;20.15;;
54191;SDS011;40101;53.002;6.488;2024-02-28T00:56:18;64.35;;;21.85;;
54191;SDS011;40101;53.002;6.488;2024-02-28T00:58:44;67.45;;;22.80;;
54191;SDS011;40101;53.002;6.488;2024-02-28T01:01:10;67.82;;;20.00;;
54191;SDS011;40101;53.002;6.488;2024-02-28T01:03:36;54.47;;;21.10;;
54191;SDS011;40101;53.002;6.488;2024-02-28T01:06:02;66.63;;;20.80;;
54191;SDS011;40101;53.002;6.488;2024-02-28T01:08:29;68.07;;;21.15;;
54191;SDS011;40101;53.002;6.488;2024-02-28T01:10:55;62.78;;;21.77;;
54191;SDS011;40101;53.002;6.488;2024-02-28T01:13:20;54.75;;;20.52;;
54191;SDS011;40101;53.002;6.488;2024-02-28T01:15:46;55.35;;;20.10;;
54191;SDS011;40101;53.002;6.488;2024-02-28T01:18:12;60.38;;;21.67;;
54191;SDS011;40101;53.002;6.488;2024-02-28T01:20:37;50.53;;;19.55;;
54191;SDS011;40101;53.002;6.488;2024-02-28T01:23:03;56.00;;;20.40;;
54191;SDS011;40101;53.002;6.488;2024-02-28T01:25:29;56.90;;;20.17;;
54191;SDS011;40101;53.002;6.488;2024-02-28T01:27:58;49.08;;;19.08;;
54191;SDS011;40101;53.002;6.488;2024-02-28T01:30:24;52.33;;;19.10;;
54191;SDS011;40101;53.002;6.488;2024-02-28T01:32:49;64.00;;;21.83;;
54191;SDS011;40101;53.002;6.488;2024-02-28T01:35:15;70.07;;;22.05;;
54191;SDS011;40101;53.002;6.488;2024-02-28T01:37:41;64.22;;;22.23;;
54191;SDS011;40101;53.002;6.488;2024-02-28T01:40:09;61.10;;;20.23;;
54191;SDS011;40101;53.002;6.488;2024-02-28T01:42:35;63.55;;;22.52;;
54191;SDS011;40101;53.002;6.488;2024-02-28T01:45:01;58.65;;;21.17;;
54191;SDS011;40101;53.002;6.488;2024-02-28T01:47:34;53.90;;;19.90;;
54191;SDS011;40101;53.002;6.488;2024-02-28T01:50:00;59.85;;;21.88;;
54191;SDS011;40101;53.002;6.488;2024-02-28T01:52:25;58.22;;;21.27;;
54191;SDS011;40101;53.002;6.488;2024-02-28T01:54:52;47.45;;;20.13;;
54191;SDS011;40101;53.002;6.488;2024-02-28T01:57:17;58.55;;;19.17;;
54191;SDS011;40101;53.002;6.488;2024-02-28T01:59:43;56.17;;;20.73;;
54191;SDS011;40101;53.002;6.488;2024-02-28T02:02:10;50.72;;;20.05;;
54191;SDS011;40101;53.002;6.488;2024-02-28T02:04:36;57.30;;;20.17;;
54191;SDS011;40101;53.002;6.488;2024-02-28T02:07:02;53.67;;;19.35;;
54191;SDS011;40101;53.002;6.488;2024-02-28T02:09:28;60.75;;;20.02;;
54191;SDS011;40101;53.002;6.488;2024-02-28T02:11:54;51.03;;;19.63;;
54191;SDS011;40101;53.002;6.488;2024-02-28T02:14:19;54.40;;;20.08;;
54191;SDS011;40101;53.002;6.488;2024-02-28T02:16:45;50.20;;;20.63;;
54191;SDS011;40101;53.002;6.488;2024-02-28T02:19:11;57.50;;;19.80;;
54191;SDS011;40101;53.002;6.488;2024-02-28T02:21:40;53.22;;;21.42;;
54191;SDS011;40101;53.002;6.488;2024-02-28T02:24:08;58.83;;;21.20;;
54191;SDS011;40101;53.002;6.488;2024-02-28T02:26:34;49.47;;;20.08;;
54191;SDS011;40101;53.002;6.488;2024-02-28T02:29:00;51.45;;;20.88;;
54191;SDS011;40101;53.002;6.488;2024-02-28T02:31:26;59.45;;;22.13;;
54191;SDS011;40101;53.002;6.488;2024-02-28T02:33:59;49.03;;;20.73;;
54191;SDS011;40101;53.002;6.488;2024-02-28T02:36:24;52.45;;;22.60;;
54191;SDS011;40101;53.002;6.488;2024-02-28T02:38:50;59.22;;;21.42;;
54191;SDS011;40101;53.002;6.488;2024-02-28T02:41:16;58.88;;;22.00;;
54191;SDS011;40101;53.002;6.488;2024-02-28T02:43:41;60.78;;;21.25;;
54191;SDS011;40101;53.002;6.488;2024-02-28T02:46:07;59.13;;;22.00;;
54191;SDS011;40101;53.002;6.488;2024-02-28T02:48:36;57.22;;;21.42;;
54191;SDS011;40101;53.002;6.488;2024-02-28T02:51:02;63.90;;;21.67;;
54191;SDS011;40101;53.002;6.488;2024-02-28T02:53:28;61.15;;;21.73;;
54191;SDS011;40101;53.002;6.488;2024-02-28T02:55:54;62.17;;;22.73;;
54191;SDS011;40101;53.002;6.488;2024-02-28T02:58:19;53.22;;;21.02;;
54191;SDS011;40101;53.002;6.488;2024-02-28T03:00:45;64.25;;;22.25;;
54191;SDS011;40101;53.002;6.488;2024-02-28T03:03:11;62.85;;;22.63;;
54191;SDS011;40101;53.002;6.488;2024-02-28T03:05:40;60.95;;;23.55;;
54191;SDS011;40101;53.002;6.488;2024-02-28T03:08:10;60.53;;;21.35;;
54191;SDS011;40101;53.002;6.488;2024-02-28T03:10:36;61.60;;;24.00;;
54191;SDS011;40101;53.002;6.488;2024-02-28T03:13:01;57.83;;;23.58;;
54191;SDS011;40101;53.002;6.488;2024-02-28T03:15:27;64.10;;;22.15;;
54191;SDS011;40101;53.002;6.488;2024-02-28T03:17:53;68.55;;;24.38;;
54191;SDS011;40101;53.002;6.488;2024-02-28T03:20:18;64.18;;;23.20;;
54191;SDS011;40101;53.002;6.488;2024-02-28T03:22:44;60.83;;;23.55;;
54191;SDS011;40101;53.002;6.488;2024-02-28T03:25:10;60.65;;;22.80;;
54191;SDS011;40101;53.002;6.488;2024-02-28T03:27:35;70.25;;;25.23;;
54191;SDS011;40101;53.002;6.488;2024-02-28T03:30:01;60.00;;;21.17;;
54191;SDS011;40101;53.002;6.488;2024-02-28T03:32:28;59.08;;;22.60;;
54191;SDS011;40101;53.002;6.488;2024-02-28T03:34:54;60.90;;;23.40;;
54191;SDS011;40101;53.002;6.488;2024-02-28T03:37:19;55.67;;;21.98;;
54191;SDS011;40101;53.002;6.488;2024-02-28T03:39:45;54.85;;;22.20;;
54191;SDS011;40101;53.002;6.488;2024-02-28T03:42:11;58.05;;;23.40;;
54191;SDS011;40101;53.002;6.488;2024-02-28T03:44:37;62.53;;;22.92;;
54191;SDS011;40101;53.002;6.488;2024-02-28T03:47:03;63.15;;;23.02;;
54191;SDS011;40101;53.002;6.488;2024-02-28T03:49:29;62.15;;;24.88;;
54191;SDS011;40101;53.002;6.488;2024-02-28T03:51:54;56.47;;;23.00;;
54191;SDS011;40101;53.002;6.488;2024-02-28T03:54:20;59.47;;;23.38;;
54191;SDS011;40101;53.002;6.488;2024-02-28T03:56:45;72.47;;;26.70;;
54191;SDS011;40101;53.002;6.488;2024-02-28T03:59:11;51.60;;;23.52;;
54191;SDS011;40101;53.002;6.488;2024-02-28T04:01:37;62.50;;;24.13;;
54191;SDS011;40101;53.002;6.488;2024-02-28T04:04:02;61.58;;;22.92;;
54191;SDS011;40101;53.002;6.488;2024-02-28T04:06:28;61.72;;;24.45;;
54191;SDS011;40101;53.002;6.488;2024-02-28T04:08:55;66.18;;;24.08;;
54191;SDS011;40101;53.002;6.488;2024-02-28T04:11:20;64.40;;;23.83;;
54191;SDS011;40101;53.002;6.488;2024-02-28T04:13:46;52.72;;;22.98;;
54191;SDS011;40101;53.002;6.488;2024-02-28T04:16:12;64.05;;;23.95;;
54191;SDS011;40101;53.002;6.488;2024-02-28T04:18:38;64.60;;;24.00;;
54191;SDS011;40101;53.002;6.488;2024-02-28T04:21:04;62.83;;;23.90;;
54191;SDS011;40101;53.002;6.488;2024-02-28T04:23:30;61.05;;;23.88;;
54191;SDS011;40101;53.002;6.488;2024-02-28T04:25:55;59.13;;;25.08;;
54191;SDS011;40101;53.002;6.488;2024-02-28T04:28:21;69.93;;;25.27;;
54191;SDS011;40101;53.002;6.488;2024-02-28T04:30:47;60.50;;;23.95;;
54191;SDS011;40101;53.002;6.488;2024-02-28T04:33:12;64.28;;;25.45;;
54191;SDS011;40101;53.002;6.488;2024-02-28T04:35:38;58.97;;;24.25;;
54191;SDS011;40101;53.002;6.488;2024-02-28T04:38:04;69.15;;;25.48;;
54191;SDS011;40101;53.002;6.488;2024-02-28T04:40:29;57.13;;;22.95;;
54191;SDS011;40101;53.002;6.488;2024-02-28T04:42:55;60.40;;;24.55;;
54191;SDS011;40101;53.002;6.488;2024-02-28T04:45:21;59.80;;;23.85;;
54191;SDS011;40101;53.002;6.488;2024-02-28T04:47:46;68.35;;;24.20;;
54191;SDS011;40101;53.002;6.488;2024-02-28T04:50:12;52.88;;;22.33;;
54191;SDS011;40101;53.002;6.488;2024-02-28T04:52:38;61.15;;;23.55;;
54191;SDS011;40101;53.002;6.488;2024-02-28T04:55:04;59.60;;;21.52;;
54191;SDS011;40101;53.002;6.488;2024-02-28T04:57:30;57.22;;;24.75;;
54191;SDS011;40101;53.002;6.488;2024-02-28T04:59:56;63.88;;;22.10;;
54191;SDS011;40101;53.002;6.488;2024-02-28T05:02:22;59.45;;;22.77;;
54191;SDS011;40101;53.002;6.488;2024-02-28T05:04:49;59.83;;;24.75;;
54191;SDS011;40101;53.002;6.488;2024-02-28T05:07:15;56.05;;;24.35;;
54191;SDS011;40101;53.002;6.488;2024-02-28T05:09:41;55.55;;;22.70;;
54191;SDS011;40101;53.002;6.488;2024-02-28T05:12:06;53.83;;;21.60;;
54191;SDS011;40101;53.002;6.488;2024-02-28T05:14:33;56.08;;;22.05;;
54191;SDS011;40101;53.002;6.488;2024-02-28T05:16:58;47.40;;;20.95;;
54191;SDS011;40101;53.002;6.488;2024-02-28T05:19:24;49.38;;;20.92;;
54191;SDS011;40101;53.002;6.488;2024-02-28T05:21:50;49.25;;;20.35;;
54191;SDS011;40101;53.002;6.488;2024-02-28T05:24:16;51.95;;;22.30;;
54191;SDS011;40101;53.002;6.488;2024-02-28T05:26:41;56.10;;;22.38;;
54191;SDS011;40101;53.002;6.488;2024-02-28T05:29:07;50.05;;;20.83;;
54191;SDS011;40101;53.002;6.488;2024-02-28T05:31:33;55.13;;;23.30;;
54191;SDS011;40101;53.002;6.488;2024-02-28T05:33:59;48.67;;;20.33;;
54191;SDS011;40101;53.002;6.488;2024-02-28T05:36:26;53.67;;;23.38;;
54191;SDS011;40101;53.002;6.488;2024-02-28T05:38:53;50.15;;;22.70;;
54191;SDS011;40101;53.002;6.488;2024-02-28T05:41:20;53.92;;;20.88;;
54191;SDS011;40101;53.002;6.488;2024-02-28T05:43:46;60.63;;;22.52;;
54191;SDS011;40101;53.002;6.488;2024-02-28T05:46:12;54.30;;;22.20;;
54191;SDS011;40101;53.002;6.488;2024-02-28T05:48:42;53.88;;;22.98;;
54191;SDS011;40101;53.002;6.488;2024-02-28T05:51:08;55.92;;;24.00;;
54191;SDS011;40101;53.002;6.488;2024-02-28T05:53:34;54.40;;;21.85;;
54191;SDS011;40101;53.002;6.488;2024-02-28T05:56:06;53.22;;;22.27;;
54191;SDS011;40101;53.002;6.488;2024-02-28T05:58:42;58.50;;;22.65;;
54191;SDS011;40101;53.002;6.488;2024-02-28T06:01:09;52.20;;;22.40;;
54191;SDS011;40101;53.002;6.488;2024-02-28T06:03:36;49.53;;;22.63;;
54191;SDS011;40101;53.002;6.488;2024-02-28T06:06:02;54.22;;;23.05;;
54191;SDS011;40101;53.002;6.488;2024-02-28T06:08:34;55.03;;;22.13;;
54191;SDS011;40101;53.002;6.488;2024-02-28T06:11:03;53.85;;;24.00;;
54191;SDS011;40101;53.002;6.488;2024-02-28T06:13:28;47.75;;;20.30;;
54191;SDS011;40101;53.002;6.488;2024-02-28T06:15:56;52.20;;;21.85;;
54191;SDS011;40101;53.002;6.488;2024-02-28T06:18:25;54.38;;;21.75;;
54191;SDS011;40101;53.002;6.488;2024-02-28T06:20:55;55.80;;;22.65;;
54191;SDS011;40101;53.002;6.488;2024-02-28T06:23:24;47.13;;;22.10;;
54191;SDS011;40101;53.002;6.488;2024-02-28T06:25:53;58.35;;;23.38;;
54191;SDS011;40101;53.002;6.488;2024-02-28T06:28:19;60.17;;;23.52;;
54191;SDS011;40101;53.002;6.488;2024-02-28T06:30:46;48.20;;;21.05;;
54191;SDS011;40101;53.002;6.488;2024-02-28T06:33:14;51.55;;;24.50;;
54191;SDS011;40101;53.002;6.488;2024-02-28T06:35:40;49.78;;;22.38;;
54191;SDS011;40101;53.002;6.488;2024-02-28T06:38:06;52.15;;;22.77;;
54191;SDS011;40101;53.002;6.488;2024-02-28T06:40:32;55.17;;;23.00;;
54191;SDS011;40101;53.002;6.488;2024-02-28T06:42:58;47.65;;;23.30;;
54191;SDS011;40101;53.002;6.488;2024-02-28T06:45:24;50.80;;;22.55;;
54191;SDS011;40101;53.002;6.488;2024-02-28T06:47:50;50.22;;;22.85;;
54191;SDS011;40101;53.002;6.488;2024-02-28T06:50:16;51.33;;;23.25;;
54191;SDS011;40101;53.002;6.488;2024-02-28T06:52:42;53.50;;;23.23;;
54191;SDS011;40101;53.002;6.488;2024-02-28T06:55:08;58.45;;;22.88;;
54191;SDS011;40101;53.002;6.488;2024-02-28T06:57:39;51.20;;;23.65;;
54191;SDS011;40101;53.002;6.488;2024-02-28T07:00:07;59.17;;;23.63;;
54191;SDS011;40101;53.002;6.488;2024-02-28T07:02:37;51.40;;;23.67;;
54191;SDS011;40101;53.002;6.488;2024-02-28T07:05:03;53.10;;;22.92;;
54191;SDS011;40101;53.002;6.488;2024-02-28T07:07:32;50.08;;;22.58;;
54191;SDS011;40101;53.002;6.488;2024-02-28T07:09:58;57.80;;;26.23;;
54191;SDS011;40101;53.002;6.488;2024-02-28T07:12:24;49.65;;;22.02;;
54191;SDS011;40101;53.002;6.488;2024-02-28T07:14:50;50.70;;;22.73;;
54191;SDS011;40101;53.002;6.488;2024-02-28T07:17:16;49.40;;;21.95;;
54191;SDS011;40101;53.002;6.488;2024-02-28T07:19:41;52.30;;;22.65;;
54191;SDS011;40101;53.002;6.488;2024-02-28T07:22:07;51.17;;;22.48;;
54191;SDS011;40101;53.002;6.488;2024-02-28T07:24:33;49.42;;;21.52;;
54191;SDS011;40101;53.002;6.488;2024-02-28T07:26:58;49.55;;;22.48;;
54191;SDS011;40101;53.002;6.488;2024-02-28T07:29:24;53.70;;;21.45;;
54191;SDS011;40101;53.002;6.488;2024-02-28T07:31:50;51.13;;;23.15;;
54191;SDS011;40101;53.002;6.488;2024-02-28T07:34:15;49.90;;;22.63;;
54191;SDS011;40101;53.002;6.488;2024-02-28T07:36:41;44.13;;;21.00;;
54191;SDS011;40101;53.002;6.488;2024-02-28T07:39:07;54.53;;;22.52;;
54191;SDS011;40101;53.002;6.488;2024-02-28T07:41:37;47.90;;;22.05;;
54191;SDS011;40101;53.002;6.488;2024-02-28T07:44:06;51.50;;;22.63;;
54191;SDS011;40101;53.002;6.488;2024-02-28T07:46:33;57.30;;;22.08;;
54191;SDS011;40101;53.002;6.488;2024-02-28T07:48:58;52.25;;;21.88;;
54191;SDS011;40101;53.002;6.488;2024-02-28T07:51:26;54.75;;;23.25;;
54191;SDS011;40101;53.002;6.488;2024-02-28T07:53:51;54.55;;;22.38;;
54191;SDS011;40101;53.002;6.488;2024-02-28T07:56:18;52.08;;;23.02;;
54191;SDS011;40101;53.002;6.488;2024-02-28T07:58:44;46.33;;;21.33;;
54191;SDS011;40101;53.002;6.488;2024-02-28T08:01:10;53.65;;;25.00;;
54191;SDS011;40101;53.002;6.488;2024-02-28T08:03:36;55.10;;;23.27;;
54191;SDS011;40101;53.002;6.488;2024-02-28T08:06:02;56.33;;;22.60;;
54191;SDS011;40101;53.002;6.488;2024-02-28T08:08:28;53.63;;;21.83;;
54191;SDS011;40101;53.002;6.488;2024-02-28T08:10:53;49.33;;;20.92;;
54191;SDS011;40101;53.002;6.488;2024-02-28T08:13:20;57.53;;;25.25;;
54191;SDS011;40101;53.002;6.488;2024-02-28T08:15:45;51.15;;;23.17;;
54191;SDS011;40101;53.002;6.488;2024-02-28T08:18:11;49.40;;;24.40;;
54191;SDS011;40101;53.002;6.488;2024-02-28T08:20:37;55.72;;;23.88;;
54191;SDS011;40101;53.002;6.488;2024-02-28T08:23:06;49.97;;;22.15;;
54191;SDS011;40101;53.002;6.488;2024-02-28T08:25:33;48.97;;;22.10;;
54191;SDS011;40101;53.002;6.488;2024-02-28T08:27:58;53.85;;;23.13;;
54191;SDS011;40101;53.002;6.488;2024-02-28T08:30:24;49.38;;;23.35;;
54191;SDS011;40101;53.002;6.488;2024-02-28T08:32:50;51.33;;;22.23;;
54191;SDS011;40101;53.002;6.488;2024-02-28T08:35:17;58.03;;;24.27;;
54191;SDS011;40101;53.002;6.488;2024-02-28T08:37:43;48.97;;;23.95;;
54191;SDS011;40101;53.002;6.488;2024-02-28T08:40:09;54.70;;;23.83;;
54191;SDS011;40101;53.002;6.488;2024-02-28T08:42:36;56.05;;;24.35;;
54191;SDS011;40101;53.002;6.488;2024-02-28T08:45:02;50.50;;;24.48;;
54191;SDS011;40101;53.002;6.488;2024-02-28T08:47:28;52.58;;;25.08;;
54191;SDS011;40101;53.002;6.488;2024-02-28T08:49:54;55.70;;;24.00;;
54191;SDS011;40101;53.002;6.488;2024-02-28T08:52:20;54.05;;;25.42;;
54191;SDS011;40101;53.002;6.488;2024-02-28T08:54:46;53.92;;;24.02;;
54191;SDS011;40101;53.002;6.488;2024-02-28T08:57:13;58.10;;;23.70;;
54191;SDS011;40101;53.002;6.488;2024-02-28T08:59:38;54.28;;;24.83;;
54191;SDS011;40101;53.002;6.488;2024-02-28T09:02:05;56.28;;;23.40;;
54191;SDS011;40101;53.002;6.488;2024-02-28T09:04:31;61.70;;;25.95;;
54191;SDS011;40101;53.002;6.488;2024-02-28T09:06:57;62.92;;;26.33;;
54191;SDS011;40101;53.002;6.488;2024-02-28T09:09:22;61.10;;;25.77;;
54191;SDS011;40101;53.002;6.488;2024-02-28T09:11:48;59.75;;;26.52;;
54191;SDS011;40101;53.002;6.488;2024-02-28T09:14:14;55.75;;;24.65;;
54191;SDS011;40101;53.002;6.488;2024-02-28T09:16:39;56.92;;;25.20;;
54191;SDS011;40101;53.002;6.488;2024-02-28T09:19:11;63.70;;;24.45;;
54191;SDS011;40101;53.002;6.488;2024-02-28T09:25:26;59.65;;;26.83;;
54191;SDS011;40101;53.002;6.488;2024-02-28T09:27:52;56.70;;;25.75;;
54191;SDS011;40101;53.002;6.488;2024-02-28T09:30:18;65.82;;;27.25;;
54191;SDS011;40101;53.002;6.488;2024-02-28T09:32:43;65.60;;;27.88;;
54191;SDS011;40101;53.002;6.488;2024-02-28T09:35:09;67.47;;;26.85;;
54191;SDS011;40101;53.002;6.488;2024-02-28T09:37:36;63.78;;;27.55;;
54191;SDS011;40101;53.002;6.488;2024-02-28T09:40:02;67.70;;;29.05;;
54191;SDS011;40101;53.002;6.488;2024-02-28T09:42:30;70.38;;;29.38;;
54191;SDS011;40101;53.002;6.488;2024-02-28T09:44:56;72.20;;;26.90;;
54191;SDS011;40101;53.002;6.488;2024-02-28T09:47:26;69.97;;;29.23;;
54191;SDS011;40101;53.002;6.488;2024-02-28T09:49:52;66.32;;;26.55;;
54191;SDS011;40101;53.002;6.488;2024-02-28T09:52:20;69.00;;;28.40;;
54191;SDS011;40101;53.002;6.488;2024-02-28T09:54:46;60.10;;;27.38;;
54191;SDS011;40101;53.002;6.488;2024-02-28T09:57:11;61.35;;;26.45;;
54191;SDS011;40101;53.002;6.488;2024-02-28T09:59:40;62.33;;;29.20;;
54191;SDS011;40101;53.002;6.488;2024-02-28T10:02:13;59.47;;;27.48;;
54191;SDS011;40101;53.002;6.488;2024-02-28T10:04:42;53.47;;;26.08;;
54191;SDS011;40101;53.002;6.488;2024-02-28T10:07:11;66.22;;;27.10;;
54191;SDS011;40101;53.002;6.488;2024-02-28T10:09:38;62.92;;;28.63;;
54191;SDS011;40101;53.002;6.488;2024-02-28T10:12:04;54.50;;;26.33;;
54191;SDS011;40101;53.002;6.488;2024-02-28T10:14:34;59.30;;;27.60;;
54191;SDS011;40101;53.002;6.488;2024-02-28T10:17:00;59.58;;;28.92;;
54191;SDS011;40101;53.002;6.488;2024-02-28T10:19:32;60.13;;;26.98;;
54191;SDS011;40101;53.002;6.488;2024-02-28T10:21:59;56.33;;;26.73;;
54191;SDS011;40101;53.002;6.488;2024-02-28T10:24:29;56.15;;;26.70;;
54191;SDS011;40101;53.002;6.488;2024-02-28T10:27:05;52.13;;;26.85;;
54191;SDS011;40101;53.002;6.488;2024-02-28T10:29:33;56.83;;;27.90;;
54191;SDS011;40101;53.002;6.488;2024-02-28T10:32:05;52.63;;;25.77;;
54191;SDS011;40101;53.002;6.488;2024-02-28T10:34:41;58.40;;;26.90;;
54191;SDS011;40101;53.002;6.488;2024-02-28T10:37:09;56.72;;;26.40;;
54191;SDS011;40101;53.002;6.488;2024-02-28T10:39:36;58.42;;;28.85;;
54191;SDS011;40101;53.002;6.488;2024-02-28T10:42:05;55.13;;;28.38;;
54191;SDS011;40101;53.002;6.488;2024-02-28T10:44:41;58.78;;;27.17;;
54191;SDS011;40101;53.002;6.488;2024-02-28T10:47:20;50.42;;;25.50;;
54191;SDS011;40101;53.002;6.488;2024-02-28T10:49:46;52.08;;;26.60;;
54191;SDS011;40101;53.002;6.488;2024-02-28T10:52:12;52.92;;;26.10;;
54191;SDS011;40101;53.002;6.488;2024-02-28T10:54:41;54.10;;;27.25;;
54191;SDS011;40101;53.002;6.488;2024-02-28T10:57:10;53.17;;;27.63;;
54191;SDS011;40101;53.002;6.488;2024-02-28T10:59:38;55.80;;;25.55;;
54191;SDS011;40101;53.002;6.488;2024-02-28T11:02:11;51.28;;;26.58;;
54191;SDS011;40101;53.002;6.488;2024-02-28T11:04:37;50.75;;;25.08;;
54191;SDS011;40101;53.002;6.488;2024-02-28T11:07:03;48.47;;;26.27;;
54191;SDS011;40101;53.002;6.488;2024-02-28T11:09:30;50.05;;;25.50;;
54191;SDS011;40101;53.002;6.488;2024-02-28T11:11:57;52.08;;;25.52;;
54191;SDS011;40101;53.002;6.488;2024-02-28T11:14:24;46.03;;;24.33;;
54191;SDS011;40101;53.002;6.488;2024-02-28T11:17:01;47.45;;;25.63;;
54191;SDS011;40101;53.002;6.488;2024-02-28T11:19:31;50.72;;;27.88;;
54191;SDS011;40101;53.002;6.488;2024-02-28T11:22:17;53.95;;;27.35;;
54191;SDS011;40101;53.002;6.488;2024-02-28T11:24:44;50.15;;;27.15;;
54191;SDS011;40101;53.002;6.488;2024-02-28T11:27:16;58.42;;;29.85;;
54191;SDS011;40101;53.002;6.488;2024-02-28T11:29:54;56.38;;;28.05;;
54191;SDS011;40101;53.002;6.488;2024-02-28T11:32:26;48.40;;;27.02;;
54191;SDS011;40101;53.002;6.488;2024-02-28T11:35:00;51.80;;;27.10;;
54191;SDS011;40101;53.002;6.488;2024-02-28T11:37:35;40.15;;;23.70;;
54191;SDS011;40101;53.002;6.488;2024-02-28T11:40:02;42.78;;;24.13;;
54191;SDS011;40101;53.002;6.488;2024-02-28T11:42:28;49.42;;;25.13;;
54191;SDS011;40101;53.002;6.488;2024-02-28T11:44:58;51.70;;;26.13;;
54191;SDS011;40101;53.002;6.488;2024-02-28T11:47:28;44.58;;;25.67;;
54191;SDS011;40101;53.002;6.488;2024-02-28T11:49:58;42.53;;;25.23;;
54191;SDS011;40101;53.002;6.488;2024-02-28T11:52:30;39.78;;;23.20;;
54191;SDS011;40101;53.002;6.488;2024-02-28T11:55:03;42.10;;;24.70;;
54191;SDS011;40101;53.002;6.488;2024-02-28T11:57:45;39.22;;;23.77;;
54191;SDS011;40101;53.002;6.488;2024-02-28T12:00:25;41.13;;;23.55;;
54191;SDS011;40101;53.002;6.488;2024-02-28T12:03:05;39.40;;;23.25;;
54191;SDS011;40101;53.002;6.488;2024-02-28T12:05:37;38.45;;;22.55;;
54191;SDS011;40101;53.002;6.488;2024-02-28T12:08:06;40.65;;;21.92;;
54191;SDS011;40101;53.002;6.488;2024-02-28T12:10:34;37.97;;;22.15;;
54191;SDS011;40101;53.002;6.488;2024-02-28T12:13:04;38.40;;;21.50;;
54191;SDS011;40101;53.002;6.488;2024-02-28T12:15:37;37.45;;;21.38;;
54191;SDS011;40101;53.002;6.488;2024-02-28T12:21:32;39.05;;;21.98;;
54191;SDS011;40101;53.002;6.488;2024-02-28T12:29:53;34.47;;;21.63;;
54191;SDS011;40101;53.002;6.488;2024-02-28T12:38:38;32.55;;;20.17;;
54191;SDS011;40101;53.002;6.488;2024-02-28T12:44:40;32.17;;;20.73;;
54191;SDS011;40101;53.002;6.488;2024-02-28T12:47:35;38.30;;;22.02;;
54191;SDS011;40101;53.002;6.488;2024-02-28T12:53:32;32.92;;;21.98;;
54191;SDS011;40101;53.002;6.488;2024-02-28T12:58:53;33.13;;;21.77;;
54191;SDS011;40101;53.002;6.488;2024-02-28T13:01:59;30.85;;;21.40;;
54191;SDS011;40101;53.002;6.488;2024-02-28T13:04:26;33.28;;;21.13;;
54191;SDS011;40101;53.002;6.488;2024-02-28T13:06:59;33.70;;;21.30;;
54191;SDS011;40101;53.002;6.488;2024-02-28T13:09:36;32.40;;;21.58;;
54191;SDS011;40101;53.002;6.488;2024-02-28T13:12:10;33.13;;;22.05;;
54191;SDS011;40101;53.002;6.488;2024-02-28T13:14:47;31.63;;;20.95;;
54191;SDS011;40101;53.002;6.488;2024-02-28T13:17:16;34.92;;;22.20;;
54191;SDS011;40101;53.002;6.488;2024-02-28T13:19:42;31.23;;;21.95;;
54191;SDS011;40101;53.002;6.488;2024-02-28T13:22:08;37.17;;;23.77;;
54191;SDS011;40101;53.002;6.488;2024-02-28T13:24:36;35.33;;;21.70;;
54191;SDS011;40101;53.002;6.488;2024-02-28T13:27:10;32.40;;;21.88;;
54191;SDS011;40101;53.002;6.488;2024-02-28T13:29:46;29.85;;;20.58;;
54191;SDS011;40101;53.002;6.488;2024-02-28T13:32:12;34.38;;;22.60;;
54191;SDS011;40101;53.002;6.488;2024-02-28T13:34:44;31.08;;;21.70;;
54191;SDS011;40101;53.002;6.488;2024-02-28T13:37:26;33.72;;;22.23;;
54191;SDS011;40101;53.002;6.488;2024-02-28T13:40:00;31.60;;;21.02;;
54191;SDS011;40101;53.002;6.488;2024-02-28T13:42:29;39.42;;;23.42;;
54191;SDS011;40101;53.002;6.488;2024-02-28T13:45:05;31.35;;;21.63;;
54191;SDS011;40101;53.002;6.488;2024-02-28T13:47:37;35.90;;;23.42;;
54191;SDS011;40101;53.002;6.488;2024-02-28T13:50:02;37.97;;;23.33;;
54191;SDS011;40101;53.002;6.488;2024-02-28T13:52:28;32.97;;;21.52;;
54191;SDS011;40101;53.002;6.488;2024-02-28T13:54:54;37.53;;;23.30;;
54191;SDS011;40101;53.002;6.488;2024-02-28T13:57:22;33.10;;;22.83;;
54191;SDS011;40101;53.002;6.488;2024-02-28T13:59:48;31.45;;;22.40;;
54191;SDS011;40101;53.002;6.488;2024-02-28T14:02:16;32.47;;;22.67;;
54191;SDS011;40101;53.002;6.488;2024-02-28T14:04:45;39.35;;;24.55;;
54191;SDS011;40101;53.002;6.488;2024-02-28T14:07:13;34.20;;;22.05;;
54191;SDS011;40101;53.002;6.488;2024-02-28T14:09:42;35.90;;;23.63;;
54191;SDS011;40101;53.002;6.488;2024-02-28T14:12:14;36.05;;;24.25;;
54191;SDS011;40101;53.002;6.488;2024-02-28T14:14:40;35.40;;;24.27;;
54191;SDS011;40101;53.002;6.488;2024-02-28T14:17:13;33.63;;;24.48;;
54191;SDS011;40101;53.002;6.488;2024-02-28T14:19:45;34.45;;;22.77;;
54191;SDS011;40101;53.002;6.488;2024-02-28T14:22:13;37.60;;;24.42;;
54191;SDS011;40101;53.002;6.488;2024-02-28T14:24:39;36.72;;;25.70;;
54191;SDS011;40101;53.002;6.488;2024-02-28T14:27:05;34.67;;;24.33;;
54191;SDS011;40101;53.002;6.488;2024-02-28T14:29:31;31.20;;;22.55;;
54191;SDS011;40101;53.002;6.488;2024-02-28T14:32:00;37.08;;;25.05;;
54191;SDS011;40101;53.002;6.488;2024-02-28T14:34:27;34.47;;;21.85;;
54191;SDS011;40101;53.002;6.488;2024-02-28T14:36:56;34.72;;;22.67;;
54191;SDS011;40101;53.002;6.488;2024-02-28T14:39:39;36.55;;;22.30;;
54191;SDS011;40101;53.002;6.488;2024-02-28T14:42:06;35.10;;;23.05;;
54191;SDS011;40101;53.002;6.488;2024-02-28T14:44:37;33.88;;;21.90;;
54191;SDS011;40101;53.002;6.488;2024-02-28T14:47:07;34.30;;;21.90;;
54191;SDS011;40101;53.002;6.488;2024-02-28T14:52:05;35.38;;;21.10;;
54191;SDS011;40101;53.002;6.488;2024-02-28T14:54:51;35.08;;;22.58;;
54191;SDS011;40101;53.002;6.488;2024-02-28T14:57:28;30.60;;;20.65;;